createdAt,value
2019-01-11T00:00:50.886Z,0.90
2019-01-11T00:03:19.456Z,0.80
2019-01-11T00:05:48.162Z,0.80
2019-01-11T00:08:16.796Z,0.70
2019-01-11T00:10:45.257Z,0.60
2019-01-11T00:13:13.811Z,0.50
2019-01-11T00:15:42.363Z,0.50
2019-01-11T00:18:11.060Z,0.50
2019-01-11T00:20:39.525Z,0.60
2019-01-11T00:23:08.089Z,0.70
2019-01-11T00:25:36.630Z,0.80
2019-01-11T00:28:05.342Z,0.80
2019-01-11T00:30:33.881Z,0.80
2019-01-11T00:33:02.460Z,0.80
2019-01-11T00:35:31.494Z,0.70
2019-01-11T00:38:02.496Z,0.60
2019-01-11T00:40:30.964Z,0.50
2019-01-11T00:42:59.527Z,0.60
2019-01-11T00:45:28.008Z,0.80
2019-01-11T00:47:56.512Z,0.80
2019-01-11T00:50:25.048Z,0.90
2019-01-11T00:52:53.617Z,0.90
2019-01-11T00:55:22.152Z,1.00
2019-01-11T00:57:50.731Z,0.90
2019-01-11T01:00:21.935Z,0.80
2019-01-11T01:02:50.646Z,0.70
2019-01-11T01:05:19.810Z,0.70
2019-01-11T01:07:48.709Z,0.60
2019-01-11T01:10:18.957Z,0.60
2019-01-11T01:12:47.662Z,0.70
2019-01-11T01:15:17.014Z,0.80
2019-01-11T01:17:44.723Z,1.00
2019-01-11T01:20:18.532Z,1.20
2019-01-11T01:22:46.492Z,1.30
2019-01-11T01:25:14.316Z,1.40
2019-01-11T01:27:42.035Z,1.30
2019-01-11T01:30:11.362Z,1.20
2019-01-11T01:32:39.081Z,1.30
2019-01-11T01:35:06.911Z,1.20
2019-01-11T01:37:34.698Z,1.30
2019-01-11T01:40:02.524Z,1.30
2019-01-11T01:42:30.564Z,1.40
2019-01-11T01:44:58.281Z,1.50
2019-01-11T01:47:25.987Z,1.50
2019-01-11T01:49:53.693Z,1.40
2019-01-11T01:52:21.390Z,1.30
2019-01-11T01:54:49.170Z,1.10
2019-01-11T01:57:16.996Z,1.10
2019-01-11T01:59:44.712Z,1.20
2019-01-11T02:02:12.405Z,1.10
2019-01-11T02:04:40.116Z,1.20
2019-01-11T02:07:07.808Z,1.30
2019-01-11T02:09:35.592Z,1.30
2019-01-11T02:12:03.364Z,1.30
2019-01-11T02:14:31.145Z,1.40
2019-01-11T02:16:58.858Z,1.40
2019-01-11T02:19:32.739Z,1.40
2019-01-11T02:21:55.985Z,1.30
2019-01-11T02:24:23.781Z,1.10
2019-01-11T02:26:51.548Z,1.00
2019-01-11T02:29:19.346Z,0.80
2019-01-11T02:31:47.039Z,0.70
2019-01-11T02:34:14.741Z,0.90
2019-01-11T02:36:42.513Z,0.80
2019-01-11T02:39:11.077Z,0.70
2019-01-11T02:41:38.845Z,0.50
2019-01-11T02:44:07.341Z,0.40
2019-01-11T02:46:35.028Z,0.50
2019-01-11T02:49:02.814Z,0.40
2019-01-11T02:51:31.366Z,0.40
2019-01-11T02:53:59.933Z,0.20
2019-01-11T02:56:28.738Z,0.00
2019-01-11T02:58:57.245Z,-0.10
2019-01-11T03:01:25.798Z,-0.10
2019-01-11T03:03:54.366Z,0.00
2019-01-11T03:06:22.836Z,0.10
2019-01-11T03:08:51.469Z,0.10
2019-01-11T03:11:20.012Z,0.20
2019-01-11T03:13:48.514Z,0.30
2019-01-11T03:16:17.128Z,0.30
2019-01-11T03:18:46.780Z,0.30
2019-01-11T03:21:15.365Z,0.30
2019-01-11T03:23:43.880Z,0.20
2019-01-11T03:26:12.428Z,0.20
2019-01-11T03:28:40.977Z,0.10
2019-01-11T03:31:11.186Z,0.20
2019-01-11T03:33:39.808Z,0.20
2019-01-11T03:36:08.393Z,0.20
2019-01-11T03:38:36.940Z,0.20
2019-01-11T03:41:06.500Z,0.20
2019-01-11T03:43:34.969Z,0.10
2019-01-11T03:46:03.614Z,0.10
2019-01-11T03:48:32.152Z,0.10
2019-01-11T03:51:00.649Z,0.20
2019-01-11T03:53:29.190Z,0.20
2019-01-11T03:55:57.764Z,0.20
2019-01-11T03:58:26.304Z,0.10
2019-01-11T04:00:54.862Z,0.10
2019-01-11T04:03:23.324Z,0.20
2019-01-11T04:05:51.842Z,0.20
2019-01-11T04:08:20.374Z,0.30
2019-01-11T04:10:48.948Z,0.30
2019-01-11T04:13:16.710Z,0.40
2019-01-11T04:15:44.430Z,0.50
2019-01-11T04:18:16.775Z,0.60
2019-01-11T04:20:45.328Z,0.60
2019-01-11T04:23:13.885Z,0.40
2019-01-11T04:25:42.514Z,0.40
2019-01-11T04:28:11.062Z,0.40
2019-01-11T04:30:38.841Z,0.50
2019-01-11T04:33:06.526Z,0.60
2019-01-11T04:35:34.243Z,0.60
2019-01-11T04:38:02.102Z,0.60
2019-01-11T04:40:34.075Z,0.80
2019-01-11T04:42:59.277Z,0.90
2019-01-11T04:45:27.082Z,0.90
2019-01-11T04:47:54.776Z,0.90
2019-01-11T04:50:22.570Z,0.90
2019-01-11T04:52:50.269Z,1.00
2019-01-11T04:55:18.044Z,1.10
2019-01-11T04:57:45.874Z,1.20
2019-01-11T05:00:15.102Z,1.20
2019-01-11T05:02:42.970Z,1.20
2019-01-11T05:05:10.828Z,1.20
2019-01-11T05:07:38.592Z,1.20
2019-01-11T05:10:08.252Z,1.10
2019-01-11T05:12:36.180Z,1.10
2019-01-11T05:15:04.680Z,1.00
2019-01-11T05:17:32.389Z,1.10
2019-01-11T05:20:00.379Z,1.00
2019-01-11T05:22:28.132Z,1.00
2019-01-11T05:24:55.829Z,0.90
2019-01-11T05:27:23.629Z,1.00
2019-01-11T05:29:51.383Z,0.90
2019-01-11T05:32:19.432Z,0.80
2019-01-11T05:34:47.192Z,0.80
2019-01-11T05:37:14.923Z,0.80
2019-01-11T05:39:42.692Z,1.00
2019-01-11T05:42:10.477Z,1.10
2019-01-11T05:44:38.249Z,1.10
2019-01-11T05:47:06.034Z,0.90
2019-01-11T05:49:33.797Z,0.90
2019-01-11T05:52:01.581Z,0.90
2019-01-11T05:54:29.276Z,0.80
2019-01-11T05:56:57.125Z,0.70
2019-01-11T05:59:24.818Z,0.70
2019-01-11T06:01:52.526Z,0.80
2019-01-11T06:04:21.939Z,0.60
2019-01-11T06:06:54.275Z,0.60
2019-01-11T06:09:21.970Z,0.60
2019-01-11T06:11:49.757Z,0.50
2019-01-11T06:14:17.517Z,0.50
2019-01-11T06:16:45.311Z,0.60
2019-01-11T06:19:13.141Z,0.70
2019-01-11T06:21:41.144Z,0.80
2019-01-11T06:24:08.834Z,1.00
2019-01-11T06:26:36.688Z,1.00
2019-01-11T06:29:04.452Z,0.80
2019-01-11T06:31:32.161Z,0.70
2019-01-11T06:33:59.851Z,0.60
2019-01-11T06:36:27.566Z,0.60
2019-01-11T06:38:55.338Z,0.60
2019-01-11T06:41:24.749Z,0.70
2019-01-11T06:43:52.442Z,0.80
2019-01-11T06:46:21.884Z,0.80
2019-01-11T06:48:49.593Z,0.80
2019-01-11T06:51:17.357Z,0.70
2019-01-11T06:53:45.206Z,0.70
2019-01-11T06:56:12.980Z,0.70
2019-01-11T06:58:40.756Z,0.60
2019-01-11T07:01:08.538Z,0.70
2019-01-11T07:03:36.387Z,0.70
2019-01-11T07:06:04.136Z,0.80
2019-01-11T07:08:31.849Z,0.80
2019-01-11T07:11:00.373Z,0.90
2019-01-11T07:13:28.080Z,1.00
2019-01-11T07:15:55.772Z,1.00
2019-01-11T07:18:23.544Z,1.00
2019-01-11T07:20:51.240Z,1.00
2019-01-11T07:23:19.023Z,1.10
2019-01-11T07:25:47.756Z,1.10
2019-01-11T07:28:15.565Z,0.90
2019-01-11T07:30:47.580Z,1.00
2019-01-11T07:33:16.161Z,1.00
2019-01-11T07:35:45.489Z,1.00
2019-01-11T07:38:13.280Z,0.90
2019-01-11T07:40:40.974Z,0.90
2019-01-11T07:43:08.689Z,0.90
2019-01-11T07:45:36.396Z,1.00
2019-01-11T07:48:04.213Z,0.90
2019-01-11T07:50:31.902Z,0.90
2019-01-11T07:52:59.621Z,1.10
2019-01-11T07:55:27.383Z,1.10
2019-01-11T07:57:55.238Z,1.00
2019-01-11T08:00:22.940Z,1.00
2019-01-11T08:02:50.742Z,1.10
2019-01-11T08:05:18.501Z,1.30
2019-01-11T08:07:46.478Z,1.40
2019-01-11T08:10:14.324Z,1.30
2019-01-11T08:12:42.158Z,1.40
2019-01-11T08:15:11.317Z,1.50
2019-01-11T08:17:39.073Z,1.50
2019-01-11T08:20:07.754Z,1.50
2019-01-11T08:22:37.082Z,1.40
2019-01-11T08:25:05.525Z,1.30
2019-01-11T08:27:33.211Z,1.50
2019-01-11T08:30:00.925Z,1.50
2019-01-11T08:32:28.692Z,1.40
2019-01-11T08:34:56.482Z,1.40
2019-01-11T08:37:24.506Z,1.40
2019-01-11T08:39:52.221Z,1.50
2019-01-11T08:42:19.906Z,1.40
2019-01-11T08:44:47.617Z,1.40
2019-01-11T08:47:15.413Z,1.20
2019-01-11T08:49:43.156Z,0.90
2019-01-11T08:52:10.925Z,0.90
2019-01-11T08:54:38.704Z,1.00
2019-01-11T08:57:06.403Z,0.90
2019-01-11T08:59:34.180Z,0.90
2019-01-11T09:02:01.873Z,0.80
2019-01-11T09:04:29.584Z,0.70
2019-01-11T09:06:57.413Z,0.60
2019-01-11T09:09:25.202Z,0.60
2019-01-11T09:11:53.141Z,0.70
2019-01-11T09:14:31.800Z,0.70
2019-01-11T09:16:59.492Z,0.60
2019-01-11T09:19:27.207Z,0.80
2019-01-11T09:21:54.896Z,1.00
2019-01-11T09:24:22.680Z,1.10
2019-01-11T09:26:51.585Z,1.10
2019-01-11T09:29:19.325Z,1.10
2019-01-11T09:31:47.018Z,1.20
2019-01-11T09:34:14.880Z,1.30
2019-01-11T09:36:43.649Z,1.10
2019-01-11T09:39:11.445Z,0.90
2019-01-11T09:41:39.216Z,1.00
2019-01-11T09:44:07.058Z,1.20
2019-01-11T09:46:34.774Z,1.20
2019-01-11T09:49:02.463Z,1.20
2019-01-11T09:51:30.257Z,1.30
2019-01-11T09:53:57.965Z,1.10
2019-01-11T09:56:25.740Z,1.30
2019-01-11T09:58:53.506Z,1.40
2019-01-11T10:01:21.300Z,1.50
2019-01-11T10:03:49.856Z,1.60
2019-01-11T10:06:17.652Z,1.60
2019-01-11T10:08:45.431Z,1.50
2019-01-11T10:11:13.647Z,1.60
2019-01-11T10:13:41.378Z,1.70
2019-01-11T10:16:09.159Z,1.60
2019-01-11T10:18:36.932Z,1.60
2019-01-11T10:21:04.791Z,1.70
2019-01-11T10:23:32.544Z,1.70
2019-01-11T10:26:00.413Z,1.60
2019-01-11T10:28:28.188Z,1.60
2019-01-11T10:31:00.649Z,1.90
2019-01-11T10:33:25.393Z,1.50
2019-01-11T10:35:53.349Z,1.50
2019-01-11T10:38:21.106Z,1.50
2019-01-11T10:40:48.889Z,1.30
2019-01-11T10:43:16.577Z,1.20
2019-01-11T10:45:44.292Z,1.50
2019-01-11T10:48:12.056Z,1.80
2019-01-11T10:50:39.827Z,1.70
2019-01-11T10:53:07.687Z,1.90
2019-01-11T10:55:35.488Z,2.00
2019-01-11T10:58:03.371Z,1.80
2019-01-11T11:00:31.112Z,1.80
2019-01-11T11:02:58.889Z,1.70
2019-01-11T11:05:26.737Z,2.00
2019-01-11T11:07:54.601Z,1.70
2019-01-11T11:10:22.365Z,1.70
2019-01-11T11:12:51.856Z,1.50
2019-01-11T11:15:19.621Z,1.50
2019-01-11T11:17:47.449Z,1.50
2019-01-11T11:20:18.632Z,1.40
2019-01-11T11:25:33.873Z,1.40
2019-01-11T11:28:01.644Z,1.50
2019-01-11T11:30:30.170Z,1.30
2019-01-11T11:32:59.030Z,1.20
2019-01-11T11:35:26.970Z,1.20
2019-01-11T11:37:54.895Z,1.00
2019-01-11T11:40:22.664Z,0.90
2019-01-11T11:42:50.392Z,0.70
2019-01-11T11:45:18.150Z,0.20
2019-01-11T11:47:45.941Z,0.30
2019-01-11T11:50:13.781Z,0.30
2019-01-11T11:52:41.553Z,0.20
2019-01-11T11:55:09.704Z,0.20
2019-01-11T11:57:37.425Z,0.30
2019-01-11T12:00:06.715Z,0.20
2019-01-11T12:02:34.445Z,0.10
2019-01-11T12:05:02.133Z,0.10
2019-01-11T12:07:29.846Z,0.00
2019-01-11T12:09:57.602Z,0.10
2019-01-11T12:12:25.394Z,0.50
2019-01-11T12:14:53.097Z,0.60
2019-01-11T12:17:20.995Z,0.80
2019-01-11T12:19:48.748Z,0.60
2019-01-11T12:22:16.457Z,0.50
2019-01-11T12:24:44.213Z,0.30
2019-01-11T12:27:11.957Z,0.20
2019-01-11T12:29:39.712Z,0.40
2019-01-11T12:32:07.401Z,0.30
2019-01-11T12:34:35.108Z,0.40
2019-01-11T12:38:13.807Z,0.40
2019-01-11T12:40:41.673Z,0.20
2019-01-11T12:43:09.444Z,0.20
2019-01-11T12:45:37.230Z,0.50
2019-01-11T12:48:05.027Z,0.50
2019-01-11T12:50:32.789Z,1.00
2019-01-11T12:53:00.597Z,3.80
2019-01-11T12:55:29.147Z,6.20
2019-01-11T12:57:57.689Z,8.20
2019-01-11T13:00:26.317Z,9.10
2019-01-11T13:02:54.802Z,8.10
2019-01-11T13:05:23.629Z,6.90
2019-01-11T13:07:52.265Z,6.00
2019-01-11T13:10:21.583Z,5.20
2019-01-11T13:12:50.147Z,4.70
2019-01-11T13:15:19.975Z,4.20
2019-01-11T13:20:18.493Z,3.50
2019-01-11T13:22:47.206Z,3.40
2019-01-11T13:25:15.913Z,3.30
2019-01-11T13:27:44.457Z,2.90
2019-01-11T13:30:15.276Z,2.80
2019-01-11T13:32:43.937Z,2.80
2019-01-11T13:35:12.849Z,2.70
2019-01-11T13:37:41.525Z,2.70
2019-01-11T13:40:15.915Z,2.70
2019-01-11T13:42:44.533Z,2.60
2019-01-11T13:45:13.163Z,2.70
2019-01-11T13:47:41.708Z,2.80
2019-01-11T13:50:35.279Z,2.90
2019-01-11T13:53:04.481Z,2.80
2019-01-11T13:55:33.137Z,2.80
2019-01-11T13:58:01.612Z,2.80
2019-01-11T14:00:30.247Z,2.80
2019-01-11T14:02:59.033Z,2.70
2019-01-11T14:05:27.602Z,2.80
2019-01-11T14:07:56.080Z,2.80
2019-01-11T14:10:24.651Z,2.80
2019-01-11T14:12:53.322Z,2.70
2019-01-11T14:15:22.034Z,2.80
2019-01-11T14:17:50.568Z,2.80
2019-01-11T14:20:19.142Z,2.80
2019-01-11T14:22:47.625Z,2.80
2019-01-11T14:25:17.134Z,2.70
2019-01-11T14:27:45.863Z,2.80
2019-01-11T14:30:17.252Z,2.90
2019-01-11T14:32:45.960Z,3.00
2019-01-11T14:35:14.597Z,2.90
2019-01-11T14:37:43.174Z,2.90
2019-01-11T14:40:14.588Z,2.90
2019-01-11T14:42:43.284Z,2.90
2019-01-11T14:45:14.180Z,2.80
2019-01-11T14:47:42.723Z,2.80
2019-01-11T14:50:13.948Z,2.80
2019-01-11T14:52:42.520Z,2.80
2019-01-11T14:55:11.231Z,2.80
2019-01-11T14:57:39.958Z,2.80
2019-01-11T15:00:14.320Z,2.80
2019-01-11T15:02:42.926Z,2.70
2019-01-11T15:05:12.933Z,2.60
2019-01-11T15:07:41.403Z,2.50
2019-01-11T15:10:12.143Z,2.40
2019-01-11T15:12:41.534Z,2.40
2019-01-11T15:15:10.394Z,2.40
2019-01-11T15:17:38.937Z,2.40
2019-01-11T15:20:16.174Z,2.50
2019-01-11T15:22:45.078Z,2.40
2019-01-11T15:25:13.645Z,2.40
2019-01-11T15:27:42.115Z,2.40
2019-01-11T15:30:13.763Z,2.40
2019-01-11T15:32:42.498Z,2.40
2019-01-11T15:35:11.108Z,2.30
2019-01-11T15:37:39.605Z,2.20
2019-01-11T15:40:13.921Z,2.20
2019-01-11T15:42:42.515Z,2.10
2019-01-11T15:45:11.226Z,2.00
2019-01-11T15:47:39.818Z,2.20
2019-01-11T15:50:16.165Z,2.30
2019-01-11T15:52:44.870Z,2.20
2019-01-11T15:55:13.545Z,2.10
2019-01-11T15:57:42.047Z,2.10
2019-01-11T16:00:19.320Z,2.10
2019-01-11T16:02:47.956Z,2.10
2019-01-11T16:05:16.500Z,2.00
2019-01-11T16:07:45.077Z,2.10
2019-01-11T16:10:16.661Z,2.00
2019-01-11T16:12:46.148Z,1.80
2019-01-11T16:15:23.567Z,1.80
2019-01-11T16:17:55.258Z,1.90
2019-01-11T16:20:23.733Z,2.00
2019-01-11T16:22:52.237Z,2.00
2019-01-11T16:25:20.773Z,2.00
2019-01-11T16:27:49.435Z,2.00
2019-01-11T16:30:18.135Z,2.00
2019-01-11T16:32:46.694Z,2.10
2019-01-11T16:35:15.173Z,2.00
2019-01-11T16:37:43.765Z,2.10
2019-01-11T16:40:13.566Z,2.00
2019-01-11T16:42:42.129Z,2.10
2019-01-11T16:45:13.258Z,2.10
2019-01-11T16:47:41.913Z,2.10
2019-01-11T16:50:13.583Z,2.10
2019-01-11T16:52:46.240Z,2.00
2019-01-11T16:55:12.472Z,2.00
2019-01-11T16:57:40.986Z,2.10
2019-01-11T17:00:12.950Z,2.10
2019-01-11T17:02:41.707Z,2.20
2019-01-11T17:05:10.595Z,2.20
2019-01-11T17:07:39.172Z,2.20
2019-01-11T17:10:10.483Z,2.20
2019-01-11T17:12:41.851Z,2.20
2019-01-11T17:15:15.227Z,2.20
2019-01-11T17:17:43.870Z,2.20
2019-01-11T17:20:15.027Z,2.30
2019-01-11T17:22:43.832Z,2.30
2019-01-11T17:25:15.061Z,2.30
2019-01-11T17:27:43.548Z,2.30
2019-01-11T17:30:14.916Z,2.20
2019-01-11T17:32:43.618Z,2.20
2019-01-11T17:35:12.523Z,2.10
2019-01-11T17:37:41.126Z,2.10
2019-01-11T17:40:11.432Z,2.10
2019-01-11T17:42:40.230Z,2.10
2019-01-11T17:45:11.666Z,2.00
2019-01-11T17:47:40.544Z,2.00
2019-01-11T17:50:14.537Z,2.10
2019-01-11T17:52:43.085Z,2.10
2019-01-11T17:55:12.077Z,2.10
2019-01-11T17:57:40.555Z,2.00
2019-01-11T18:00:12.327Z,2.00
2019-01-11T18:02:40.958Z,2.10
2019-01-11T18:05:11.269Z,2.20
2019-01-11T18:07:39.877Z,2.20
2019-01-11T18:10:10.190Z,2.30
2019-01-11T18:12:39.280Z,2.40
2019-01-11T18:15:10.803Z,2.40
2019-01-11T18:17:39.350Z,2.50
2019-01-11T18:20:14.014Z,2.70
2019-01-11T18:22:42.556Z,2.60
2019-01-11T18:25:11.137Z,2.60
2019-01-11T18:27:39.678Z,2.60
2019-01-11T18:30:14.223Z,2.70
2019-01-11T18:32:42.770Z,2.80
2019-01-11T18:35:11.409Z,2.70
2019-01-11T18:37:40.012Z,2.70
2019-01-11T18:40:17.874Z,2.80
2019-01-11T18:42:46.429Z,2.90
2019-01-11T18:45:15.229Z,3.00
2019-01-11T18:47:43.860Z,3.00
2019-01-11T18:50:15.562Z,2.80
2019-01-11T18:52:44.166Z,2.80
2019-01-11T18:55:12.940Z,2.80
2019-01-11T18:57:41.406Z,2.80
2019-01-11T19:00:15.634Z,2.80
2019-01-11T19:02:44.246Z,2.90
2019-01-11T19:05:14.313Z,3.00
2019-01-11T19:07:46.203Z,3.00
2019-01-11T19:10:15.555Z,2.90
2019-01-11T19:12:44.354Z,3.00
2019-01-11T19:15:18.166Z,2.90
2019-01-11T19:17:47.047Z,3.00
2019-01-11T19:20:17.869Z,3.00
2019-01-11T19:22:46.408Z,3.00
2019-01-11T19:25:15.048Z,2.90
2019-01-11T19:27:44.005Z,2.90
2019-01-11T19:30:15.872Z,3.00
2019-01-11T19:32:45.725Z,3.10
2019-01-11T19:35:14.630Z,3.10
2019-01-11T19:37:43.258Z,3.10
2019-01-11T19:40:16.616Z,3.10
2019-01-11T19:42:45.639Z,3.10
2019-01-11T19:45:16.457Z,3.10
2019-01-11T19:47:45.090Z,3.20
2019-01-11T19:50:21.484Z,3.30
2019-01-11T19:52:50.738Z,3.40
2019-01-11T19:55:19.732Z,3.40
2019-01-11T19:57:48.349Z,3.50
2019-01-11T20:00:21.870Z,3.60
2019-01-11T20:02:51.817Z,3.60
2019-01-11T20:05:20.861Z,3.60
2019-01-11T20:07:49.654Z,3.60
2019-01-11T20:10:21.247Z,3.50
2019-01-11T20:12:49.998Z,3.50
2019-01-11T20:15:18.711Z,3.40
2019-01-11T20:17:47.543Z,3.50
2019-01-11T20:20:16.538Z,3.50
2019-01-11T20:22:45.170Z,3.50
2019-01-11T20:25:15.953Z,3.40
2019-01-11T20:27:44.589Z,3.40
2019-01-11T20:30:16.072Z,3.40
2019-01-11T20:32:44.905Z,3.40
2019-01-11T20:35:13.533Z,3.30
2019-01-11T20:37:42.331Z,3.40
2019-01-11T20:40:14.122Z,3.40
2019-01-11T20:42:42.781Z,3.50
2019-01-11T20:45:13.857Z,3.60
2019-01-11T20:47:42.357Z,3.60
2019-01-11T20:50:14.316Z,3.60
2019-01-11T20:52:42.950Z,3.70
2019-01-11T20:55:11.750Z,3.60
2019-01-11T20:57:40.369Z,3.70
2019-01-11T21:00:15.395Z,3.80
2019-01-11T21:02:44.108Z,3.70
2019-01-11T21:05:13.372Z,3.80
2019-01-11T21:07:41.944Z,3.80
2019-01-11T21:10:12.227Z,3.90
2019-01-11T21:12:40.786Z,3.90
2019-01-11T21:15:15.563Z,4.00
2019-01-11T21:17:44.208Z,4.00
2019-01-11T21:20:15.193Z,4.10
2019-01-11T21:22:44.530Z,4.10
2019-01-11T21:25:17.719Z,4.10
2019-01-11T21:27:46.472Z,4.20
2019-01-11T21:30:23.330Z,4.20
2019-01-11T21:32:52.061Z,4.20
2019-01-11T21:35:20.957Z,4.20
2019-01-11T21:37:49.518Z,4.20
2019-01-11T21:40:21.658Z,4.20
2019-01-11T21:42:50.527Z,4.20
2019-01-11T21:45:19.425Z,4.20
2019-01-11T21:47:48.410Z,4.20
2019-01-11T21:50:21.903Z,4.20
2019-01-11T21:52:50.557Z,4.20
2019-01-11T21:55:19.376Z,4.30
2019-01-11T21:57:48.084Z,4.30
2019-01-11T22:00:25.353Z,4.30
2019-01-11T22:02:53.985Z,4.30
2019-01-11T22:05:22.605Z,4.40
2019-01-11T22:07:51.230Z,4.50
2019-01-11T22:10:19.861Z,4.60
2019-01-11T22:12:48.366Z,4.70
2019-01-11T22:15:18.478Z,4.70
2019-01-11T22:17:47.273Z,4.70
2019-01-11T22:20:17.169Z,4.60
2019-01-11T22:22:45.737Z,4.60
2019-01-11T22:25:15.862Z,4.70
2019-01-11T22:27:44.593Z,4.70
2019-01-11T22:30:15.674Z,4.60
2019-01-11T22:32:44.232Z,4.70
2019-01-11T22:35:12.877Z,4.60
2019-01-11T22:37:41.441Z,4.70
2019-01-11T22:40:12.981Z,4.70
2019-01-11T22:42:41.545Z,4.70
2019-01-11T22:45:12.552Z,4.70
2019-01-11T22:47:41.181Z,4.60
2019-01-11T22:50:11.965Z,4.60
2019-01-11T22:52:40.821Z,4.50
2019-01-11T22:55:11.708Z,4.50
2019-01-11T22:57:40.533Z,4.60
2019-01-11T23:00:36.739Z,4.60
2019-01-11T23:03:08.405Z,4.60
2019-01-11T23:05:38.568Z,4.70
2019-01-11T23:08:08.093Z,4.70
2019-01-11T23:10:45.576Z,4.70
2019-01-11T23:13:14.215Z,4.70
2019-01-11T23:15:42.851Z,4.80
2019-01-11T23:18:11.546Z,4.80
2019-01-11T23:20:40.095Z,4.80
2019-01-11T23:23:09.069Z,4.70
2019-01-11T23:25:37.610Z,4.60
2019-01-11T23:28:06.187Z,4.70
2019-01-11T23:30:34.802Z,4.60
2019-01-11T23:33:03.368Z,4.60
2019-01-11T23:35:31.977Z,4.60
2019-01-11T23:38:00.633Z,4.60
2019-01-11T23:40:29.164Z,4.60
2019-01-11T23:42:57.700Z,4.60
2019-01-11T23:45:26.229Z,4.60
2019-01-11T23:47:55.732Z,4.60
2019-01-11T23:50:24.456Z,4.70
2019-01-11T23:52:53.000Z,4.80
2019-01-11T23:55:21.505Z,4.90
2019-01-11T23:57:50.047Z,5.00
